createdAt,value
2023-04-09T00:01:45.419Z,1.93
2023-04-09T00:04:13.875Z,1.60
2023-04-09T00:06:42.368Z,2.10
2023-04-09T00:09:10.737Z,1.83
2023-04-09T00:11:39.137Z,3.03
2023-04-09T00:14:07.734Z,2.93
2023-04-09T00:16:36.150Z,2.47
2023-04-09T00:19:04.579Z,2.53
2023-04-09T00:21:33.090Z,1.93
2023-04-09T00:24:02.045Z,2.40
2023-04-09T00:26:30.517Z,2.17
2023-04-09T00:28:59.022Z,2.07
2023-04-09T00:31:27.624Z,1.80
2023-04-09T00:33:56.129Z,2.15
2023-04-09T00:36:25.931Z,1.83
2023-04-09T00:38:55.586Z,4.73
2023-04-09T00:41:24.033Z,1.80
2023-04-09T00:43:52.423Z,2.00
2023-04-09T00:46:21.048Z,2.30
2023-04-09T00:48:49.562Z,2.27
2023-04-09T00:51:18.094Z,3.20
2023-04-09T00:53:46.899Z,2.93
2023-04-09T00:56:16.464Z,3.77
2023-04-09T00:58:44.886Z,2.20
2023-04-09T01:01:13.353Z,3.50
2023-04-09T01:03:42.043Z,3.80
2023-04-09T01:06:24.505Z,3.10
2023-04-09T01:09:18.498Z,2.30
2023-04-09T01:12:19.327Z,2.47
2023-04-09T01:15:00.286Z,1.90
2023-04-09T01:17:41.548Z,1.77
2023-04-09T01:20:39.091Z,2.67
2023-04-09T01:23:22.697Z,2.13
2023-04-09T01:26:20.140Z,2.10
2023-04-09T01:28:54.212Z,2.53
2023-04-09T01:31:33.890Z,2.50
2023-04-09T01:34:03.469Z,1.70
2023-04-09T01:36:33.590Z,2.10
2023-04-09T01:39:05.177Z,2.00
2023-04-09T01:41:36.126Z,2.13
2023-04-09T01:44:06.894Z,1.80
2023-04-09T01:46:37.163Z,2.25
2023-04-09T01:49:06.258Z,2.13
2023-04-09T01:51:35.356Z,1.70
2023-04-09T01:54:03.940Z,2.47
2023-04-09T01:56:46.433Z,3.13
2023-04-09T01:59:15.406Z,4.27
2023-04-09T02:01:56.964Z,4.27
2023-04-09T02:04:35.495Z,5.50
2023-04-09T02:07:11.899Z,10.50
2023-04-09T02:09:42.404Z,5.47
2023-04-09T02:12:15.570Z,6.43
2023-04-09T02:14:46.969Z,3.30
2023-04-09T02:17:15.596Z,3.00
2023-04-09T02:19:46.291Z,6.30
2023-04-09T02:22:16.188Z,4.83
2023-04-09T02:24:44.795Z,2.80
2023-04-09T02:27:13.237Z,3.55
2023-04-09T02:29:42.217Z,3.57
2023-04-09T02:32:10.837Z,3.40
2023-04-09T02:34:39.247Z,4.30
2023-04-09T02:37:08.267Z,3.22
2023-04-09T02:39:36.694Z,3.55
2023-04-09T02:42:05.208Z,4.07
2023-04-09T02:44:33.646Z,5.80
2023-04-09T02:47:02.100Z,5.55
2023-04-09T02:49:30.542Z,5.13
2023-04-09T02:51:58.992Z,5.17
2023-04-09T02:54:27.404Z,3.90
2023-04-09T02:56:55.841Z,3.50
2023-04-09T02:59:24.347Z,3.67
2023-04-09T03:01:52.894Z,4.10
2023-04-09T03:04:21.504Z,3.93
2023-04-09T03:06:49.936Z,4.30
2023-04-09T03:09:18.486Z,4.97
2023-04-09T03:11:46.894Z,4.60
2023-04-09T03:14:15.338Z,4.57
2023-04-09T03:16:43.733Z,4.97
2023-04-09T03:19:12.113Z,6.20
2023-04-09T03:21:40.547Z,5.00
2023-04-09T03:24:08.973Z,5.23
2023-04-09T03:26:37.536Z,4.87
2023-04-09T03:29:07.282Z,5.32
2023-04-09T03:31:35.798Z,4.53
2023-04-09T03:34:04.306Z,5.97
2023-04-09T03:36:33.675Z,4.37
2023-04-09T03:39:02.393Z,5.33
2023-04-09T03:41:30.876Z,6.67
2023-04-09T03:43:59.332Z,4.90
2023-04-09T03:46:27.722Z,4.97
2023-04-09T03:48:56.119Z,4.13
2023-04-09T03:51:24.574Z,4.70
2023-04-09T03:53:52.946Z,4.67
2023-04-09T03:56:21.357Z,3.88
2023-04-09T03:58:50.705Z,4.70
2023-04-09T04:01:19.378Z,4.37
2023-04-09T04:03:47.992Z,4.20
2023-04-09T04:06:16.910Z,4.30
2023-04-09T04:08:45.562Z,4.23
2023-04-09T04:11:13.963Z,5.37
2023-04-09T04:13:42.453Z,4.47
2023-04-09T04:16:11.790Z,4.63
2023-04-09T04:18:40.232Z,5.30
2023-04-09T04:21:17.584Z,4.63
2023-04-09T04:23:46.057Z,3.97
2023-04-09T04:26:14.555Z,4.40
2023-04-09T04:28:43.063Z,3.90
2023-04-09T04:31:14.443Z,4.67
2023-04-09T04:33:43.839Z,4.03
2023-04-09T04:36:13.896Z,3.90
2023-04-09T04:38:42.980Z,4.27
2023-04-09T04:41:12.904Z,4.25
2023-04-09T04:43:42.300Z,5.20
2023-04-09T04:46:10.748Z,4.13
2023-04-09T04:48:39.313Z,4.73
2023-04-09T04:51:07.804Z,4.50
2023-04-09T04:53:36.218Z,4.90
2023-04-09T04:56:04.820Z,4.80
2023-04-09T04:58:33.209Z,3.90
2023-04-09T05:01:01.794Z,4.17
2023-04-09T05:03:30.428Z,4.77
2023-04-09T05:05:58.842Z,4.20
2023-04-09T05:08:27.521Z,4.43
2023-04-09T05:10:57.026Z,3.90
2023-04-09T05:13:25.772Z,4.03
2023-04-09T05:15:54.145Z,4.70
2023-04-09T05:18:22.673Z,5.10
2023-04-09T05:20:51.310Z,4.90
2023-04-09T05:23:19.801Z,5.40
2023-04-09T05:25:50.803Z,4.90
2023-04-09T05:28:19.168Z,5.40
2023-04-09T05:30:50.627Z,5.10
2023-04-09T05:33:19.267Z,4.93
2023-04-09T05:35:50.375Z,4.90
2023-04-09T05:38:18.781Z,5.00
2023-04-09T05:40:47.225Z,5.50
2023-04-09T05:43:15.649Z,5.20
2023-04-09T05:45:44.126Z,5.23
2023-04-09T05:48:12.575Z,4.57
2023-04-09T05:50:54.106Z,4.70
2023-04-09T05:53:23.883Z,5.23
2023-04-09T05:55:52.422Z,5.07
2023-04-09T05:58:20.860Z,4.23
2023-04-09T06:00:49.338Z,5.27
2023-04-09T06:03:17.901Z,4.80
2023-04-09T06:05:47.530Z,4.63
2023-04-09T06:08:16.162Z,4.63
2023-04-09T06:10:44.620Z,4.40
2023-04-09T06:13:13.085Z,4.00
2023-04-09T06:15:41.538Z,4.03
2023-04-09T06:18:10.007Z,4.73
2023-04-09T06:20:38.423Z,4.80
2023-04-09T06:23:07.261Z,4.60
2023-04-09T06:25:37.009Z,4.10
2023-04-09T06:28:05.815Z,4.10
2023-04-09T06:30:34.286Z,3.90
2023-04-09T06:33:02.710Z,4.00
2023-04-09T06:35:31.885Z,4.03
2023-04-09T06:38:00.350Z,4.00
2023-04-09T06:40:28.930Z,3.53
2023-04-09T06:42:57.373Z,3.80
2023-04-09T06:45:25.804Z,3.80
2023-04-09T06:47:54.388Z,3.57
2023-04-09T06:50:22.921Z,3.07
2023-04-09T06:52:52.168Z,3.60
2023-04-09T06:55:20.719Z,3.27
2023-04-09T06:57:49.137Z,3.30
2023-04-09T07:00:17.845Z,3.07
2023-04-09T07:02:46.454Z,3.50
2023-04-09T07:05:14.997Z,3.47
2023-04-09T07:07:43.529Z,4.00
2023-04-09T07:10:12.240Z,3.80
2023-04-09T07:12:40.660Z,3.13
2023-04-09T07:15:09.597Z,3.13
2023-04-09T07:17:38.051Z,3.43
2023-04-09T07:20:07.093Z,3.83
2023-04-09T07:22:35.537Z,4.10
2023-04-09T07:25:04.062Z,3.60
2023-04-09T07:27:32.506Z,3.90
2023-04-09T07:30:01.677Z,3.90
2023-04-09T07:32:30.372Z,4.43
2023-04-09T07:35:00.232Z,3.97
2023-04-09T07:37:28.776Z,3.80
2023-04-09T07:39:57.445Z,4.00
2023-04-09T07:42:26.757Z,4.10
2023-04-09T07:44:55.434Z,3.80
2023-04-09T07:47:24.929Z,3.53
2023-04-09T07:49:53.492Z,4.00
2023-04-09T07:52:21.982Z,3.90
2023-04-09T07:54:50.364Z,3.90
2023-04-09T07:57:18.869Z,5.20
2023-04-09T07:59:47.585Z,2.70
2023-04-09T08:02:16.405Z,3.53
2023-04-09T08:04:45.037Z,2.80
2023-04-09T08:07:13.634Z,3.30
2023-04-09T08:09:42.282Z,3.33
2023-04-09T08:12:10.710Z,3.20
2023-04-09T08:14:39.241Z,2.93
2023-04-09T08:17:07.616Z,2.90
2023-04-09T08:19:36.710Z,3.25
2023-04-09T08:22:05.149Z,3.47
2023-04-09T08:24:33.586Z,3.03
2023-04-09T08:27:02.793Z,3.10
2023-04-09T08:29:32.864Z,2.70
2023-04-09T08:32:01.534Z,3.23
2023-04-09T08:34:30.005Z,2.90
2023-04-09T08:36:58.447Z,2.80
2023-04-09T08:39:26.936Z,2.60
2023-04-09T08:42:03.333Z,2.90
2023-04-09T08:44:32.046Z,3.00
2023-04-09T08:47:01.893Z,3.10
2023-04-09T08:49:30.338Z,2.92
2023-04-09T08:51:58.904Z,2.70
2023-04-09T08:54:27.667Z,2.67
2023-04-09T08:56:57.190Z,2.20
2023-04-09T08:59:25.654Z,2.77
2023-04-09T09:02:12.547Z,2.77
2023-04-09T09:04:51.900Z,2.13
2023-04-09T09:07:20.338Z,2.37
2023-04-09T09:10:04.246Z,2.90
2023-04-09T09:12:40.745Z,3.00
2023-04-09T09:15:30.269Z,2.77
2023-04-09T09:18:01.530Z,2.87
2023-04-09T09:20:30.025Z,2.63
2023-04-09T09:22:58.621Z,2.53
2023-04-09T09:25:27.446Z,2.70
2023-04-09T09:27:56.098Z,2.27
2023-04-09T09:30:27.487Z,2.73
2023-04-09T09:33:05.457Z,2.53
2023-04-09T09:35:58.562Z,2.60
2023-04-09T09:38:27.048Z,2.67
2023-04-09T09:40:55.589Z,2.20
2023-04-09T09:43:25.067Z,2.70
2023-04-09T09:45:54.688Z,2.33
2023-04-09T09:48:23.076Z,2.80
2023-04-09T09:50:52.798Z,2.67
2023-04-09T09:53:23.907Z,2.40
2023-04-09T09:55:54.782Z,2.90
2023-04-09T09:58:29.353Z,2.33
2023-04-09T10:00:58.809Z,2.80
2023-04-09T10:03:31.088Z,3.17
2023-04-09T10:06:00.254Z,2.80
2023-04-09T10:08:31.470Z,2.90
2023-04-09T10:10:59.990Z,3.43
2023-04-09T10:13:35.329Z,3.27
2023-04-09T10:16:04.063Z,2.83
2023-04-09T10:18:35.739Z,3.13
2023-04-09T10:21:15.773Z,3.50
2023-04-09T10:23:46.108Z,3.43
2023-04-09T10:26:14.577Z,2.70
2023-04-09T10:28:44.188Z,5.35
2023-04-09T10:31:13.027Z,5.10
2023-04-09T10:33:44.474Z,6.87
2023-04-09T10:36:14.189Z,9.60
2023-04-09T10:38:47.645Z,6.40
2023-04-09T10:41:28.677Z,5.77
2023-04-09T10:43:59.130Z,4.60
2023-04-09T10:46:32.667Z,6.40
2023-04-09T10:49:16.592Z,5.30
2023-04-09T10:51:52.378Z,8.33
2023-04-09T10:54:35.920Z,7.50
2023-04-09T10:57:10.321Z,5.10
2023-04-09T10:59:43.961Z,4.07
2023-04-09T11:02:41.859Z,4.90
2023-04-09T11:05:28.559Z,4.63
2023-04-09T11:08:13.392Z,5.53
2023-04-09T11:10:43.369Z,8.97
2023-04-09T11:13:19.421Z,5.10
2023-04-09T11:15:47.895Z,3.33
2023-04-09T11:18:28.372Z,4.60
2023-04-09T11:21:01.885Z,5.80
2023-04-09T11:23:31.143Z,4.53
2023-04-09T11:25:59.608Z,3.67
2023-04-09T11:28:28.097Z,3.50
2023-04-09T11:30:56.552Z,3.80
2023-04-09T11:33:32.287Z,3.57
2023-04-09T11:36:00.962Z,4.33
2023-04-09T11:38:32.214Z,3.87
2023-04-09T11:41:00.626Z,4.20
2023-04-09T11:43:29.008Z,4.77
2023-04-09T11:45:58.058Z,5.47
2023-04-09T11:48:26.868Z,4.70
2023-04-09T11:50:55.521Z,4.17
2023-04-09T11:53:25.357Z,5.03
2023-04-09T11:55:54.800Z,4.47
2023-04-09T11:58:28.758Z,3.50
2023-04-09T12:00:59.620Z,3.27
2023-04-09T12:03:35.212Z,3.50
2023-04-09T12:06:04.687Z,3.37
2023-04-09T12:08:35.883Z,3.50
2023-04-09T12:11:11.820Z,3.80
2023-04-09T12:13:46.803Z,3.73
2023-04-09T12:16:20.409Z,4.23
2023-04-09T12:18:51.405Z,4.50
2023-04-09T12:21:19.928Z,4.63
2023-04-09T12:23:48.321Z,4.27
2023-04-09T12:26:16.771Z,3.80
2023-04-09T12:28:45.172Z,3.50
2023-04-09T12:31:13.595Z,3.83
2023-04-09T12:33:42.110Z,3.77
2023-04-09T12:36:10.688Z,3.63
2023-04-09T12:38:39.201Z,3.08
2023-04-09T12:41:07.684Z,3.40
2023-04-09T12:43:36.162Z,3.50
2023-04-09T12:46:04.759Z,3.80
2023-04-09T12:48:33.565Z,3.77
2023-04-09T12:51:02.536Z,4.40
2023-04-09T12:53:31.179Z,4.50
2023-04-09T12:56:00.272Z,3.63
2023-04-09T12:58:28.651Z,4.43
2023-04-09T13:00:58.351Z,3.67
2023-04-09T13:03:28.125Z,4.47
2023-04-09T13:05:56.753Z,3.97
2023-04-09T13:08:25.230Z,4.30
2023-04-09T13:10:53.786Z,3.67
2023-04-09T13:13:22.211Z,4.30
2023-04-09T13:15:50.617Z,4.20
2023-04-09T13:18:19.000Z,4.70
2023-04-09T13:20:47.473Z,3.87
2023-04-09T13:23:15.897Z,4.32
2023-04-09T13:25:44.277Z,4.90
2023-04-09T13:28:12.645Z,4.30
2023-04-09T13:30:41.374Z,4.43
2023-04-09T13:33:09.856Z,3.90
2023-04-09T13:35:38.319Z,3.92
2023-04-09T13:38:06.760Z,3.92
2023-04-09T13:40:35.205Z,3.97
2023-04-09T13:43:03.639Z,4.33
2023-04-09T13:45:32.227Z,4.17
2023-04-09T13:48:00.687Z,3.93
2023-04-09T13:50:29.148Z,3.53
2023-04-09T13:52:57.584Z,4.43
2023-04-09T13:55:26.352Z,3.87
2023-04-09T13:57:54.727Z,3.67
2023-04-09T14:00:23.137Z,3.63
2023-04-09T14:02:51.950Z,3.73
2023-04-09T14:05:20.508Z,3.57
2023-04-09T14:07:48.958Z,3.77
2023-04-09T14:10:17.606Z,4.43
2023-04-09T14:12:46.250Z,4.00
2023-04-09T14:15:14.800Z,3.50
2023-04-09T14:17:45.032Z,4.03
2023-04-09T14:20:13.596Z,7.50
2023-04-09T14:22:43.867Z,4.60
2023-04-09T14:25:12.340Z,5.07
2023-04-09T14:27:40.717Z,4.90
2023-04-09T14:30:11.619Z,5.00
2023-04-09T14:32:40.170Z,4.40
2023-04-09T14:35:08.892Z,4.53
2023-04-09T14:37:38.485Z,4.53
2023-04-09T14:40:07.739Z,4.00
2023-04-09T14:42:36.456Z,4.35
2023-04-09T14:45:05.202Z,4.00
2023-04-09T14:47:33.627Z,5.20
2023-04-09T14:50:02.055Z,3.97
2023-04-09T14:52:31.393Z,3.80
2023-04-09T14:55:00.537Z,3.63
2023-04-09T14:57:28.929Z,3.80
2023-04-09T14:59:57.344Z,4.80
2023-04-09T15:02:25.923Z,4.00
2023-04-09T15:04:54.578Z,3.50
2023-04-09T15:07:25.023Z,3.57
2023-04-09T15:09:53.598Z,3.10
2023-04-09T15:12:21.987Z,6.10
2023-04-09T15:14:50.427Z,5.10
2023-04-09T15:17:18.839Z,4.70
2023-04-09T15:19:47.557Z,4.10
2023-04-09T15:22:16.510Z,3.50
2023-04-09T15:24:44.978Z,13.32
2023-04-09T15:27:13.473Z,6.10
2023-04-09T15:29:41.894Z,5.83
2023-04-09T15:32:10.473Z,6.50
2023-04-09T15:34:39.320Z,4.77
2023-04-09T15:37:07.763Z,3.30
2023-04-09T15:39:36.333Z,3.93
2023-04-09T15:42:05.568Z,4.50
2023-04-09T15:44:35.540Z,3.60
2023-04-09T15:47:03.952Z,3.85
2023-04-09T15:49:32.357Z,3.40
2023-04-09T15:52:00.748Z,3.50
2023-04-09T15:54:29.118Z,3.67
2023-04-09T15:56:57.544Z,3.97
2023-04-09T15:59:26.567Z,3.40
2023-04-09T16:01:55.018Z,5.10
2023-04-09T16:04:23.489Z,3.80
2023-04-09T16:06:52.064Z,6.53
2023-04-09T16:09:20.436Z,3.53
2023-04-09T16:11:48.806Z,3.80
2023-04-09T16:14:17.228Z,3.43
2023-04-09T16:16:50.256Z,4.13
2023-04-09T16:19:19.047Z,4.33
2023-04-09T16:21:47.736Z,5.73
2023-04-09T16:24:16.338Z,4.57
2023-04-09T16:26:46.121Z,4.33
2023-04-09T16:29:16.980Z,5.30
2023-04-09T16:31:45.500Z,3.80
2023-04-09T16:34:14.051Z,4.20
2023-04-09T16:36:42.510Z,4.10
2023-04-09T16:39:11.735Z,5.40
2023-04-09T16:41:40.113Z,5.15
2023-04-09T16:44:08.523Z,4.40
2023-04-09T16:46:36.976Z,4.27
2023-04-09T16:49:05.378Z,3.23
2023-04-09T16:51:33.870Z,4.30
2023-04-09T16:54:02.355Z,4.57
2023-04-09T16:56:30.754Z,3.20
2023-04-09T16:58:59.161Z,3.67
2023-04-09T17:01:28.575Z,3.53
2023-04-09T17:03:57.396Z,5.00
2023-04-09T17:06:25.870Z,6.80
2023-04-09T17:08:54.703Z,3.60
2023-04-09T17:11:24.369Z,4.00
2023-04-09T17:13:52.943Z,3.13
2023-04-09T17:16:22.057Z,3.50
2023-04-09T17:18:50.526Z,4.10
2023-04-09T17:21:18.902Z,3.60
2023-04-09T17:23:47.471Z,3.57
2023-04-09T17:26:16.130Z,3.10
2023-04-09T17:28:45.061Z,3.40
2023-04-09T17:31:14.744Z,3.70
2023-04-09T17:33:50.113Z,3.57
2023-04-09T17:36:22.219Z,7.00
2023-04-09T17:38:53.531Z,3.27
2023-04-09T17:41:22.091Z,3.80
2023-04-09T17:43:50.710Z,4.10
2023-04-09T17:46:19.547Z,4.03
2023-04-09T17:48:48.085Z,3.43
2023-04-09T17:51:19.622Z,3.83
2023-04-09T17:53:48.272Z,3.20
2023-04-09T17:56:17.912Z,3.67
2023-04-09T17:58:47.795Z,3.70
2023-04-09T18:01:16.376Z,2.83
2023-04-09T18:03:46.584Z,5.23
2023-04-09T18:06:16.483Z,3.97
2023-04-09T18:08:44.887Z,3.00
2023-04-09T18:11:14.818Z,3.85
2023-04-09T18:13:43.311Z,3.20
2023-04-09T18:16:13.065Z,4.77
2023-04-09T18:18:42.067Z,4.53
2023-04-09T18:21:10.636Z,4.07
2023-04-09T18:23:40.973Z,4.93
2023-04-09T18:26:09.492Z,5.17
2023-04-09T18:28:37.979Z,5.00
2023-04-09T18:31:06.697Z,4.77
2023-04-09T18:33:35.120Z,4.30
2023-04-09T18:36:04.278Z,5.63
2023-04-09T18:38:32.849Z,5.20
2023-04-09T18:41:02.437Z,5.57
2023-04-09T18:43:31.182Z,5.30
2023-04-09T18:45:59.975Z,5.63
2023-04-09T18:48:28.471Z,5.87
2023-04-09T18:50:56.976Z,5.50
2023-04-09T18:53:27.172Z,4.40
2023-04-09T18:55:55.642Z,4.90
2023-04-09T18:58:24.858Z,5.37
2023-04-09T19:00:53.388Z,5.55
2023-04-09T19:03:22.803Z,5.40
2023-04-09T19:05:52.192Z,5.37
2023-04-09T19:08:20.545Z,6.03
2023-04-09T19:10:48.953Z,5.30
2023-04-09T19:13:17.746Z,5.37
2023-04-09T19:15:46.233Z,5.90
2023-04-09T19:18:14.654Z,6.80
2023-04-09T19:20:43.104Z,5.87
2023-04-09T19:23:11.921Z,5.32
2023-04-09T19:25:40.421Z,5.70
2023-04-09T19:28:08.784Z,5.63
2023-04-09T19:30:37.238Z,6.47
2023-04-09T19:33:05.778Z,5.77
2023-04-09T19:35:36.588Z,5.07
2023-04-09T19:38:05.275Z,5.80
2023-04-09T19:40:33.817Z,6.00
2023-04-09T19:43:02.430Z,6.17
2023-04-09T19:45:31.089Z,5.33
2023-04-09T19:47:59.559Z,6.00
2023-04-09T19:50:28.171Z,5.20
2023-04-09T19:52:57.222Z,5.63
2023-04-09T19:55:25.960Z,7.90
2023-04-09T19:57:54.412Z,6.50
2023-04-09T20:00:22.956Z,6.45
2023-04-09T20:02:51.836Z,6.78
2023-04-09T20:05:23.795Z,5.50
2023-04-09T20:07:54.337Z,5.40
2023-04-09T20:10:22.760Z,5.70
2023-04-09T20:12:52.735Z,5.30
2023-04-09T20:15:21.651Z,6.17
2023-04-09T20:17:51.479Z,6.33
2023-04-09T20:20:20.981Z,6.03
2023-04-09T20:22:56.039Z,6.27
2023-04-09T20:25:26.416Z,6.33
2023-04-09T20:27:55.369Z,6.90
2023-04-09T20:30:23.762Z,6.20
2023-04-09T20:32:52.548Z,7.40
2023-04-09T20:35:21.198Z,8.17
2023-04-09T20:37:50.702Z,9.38
2023-04-09T20:40:19.154Z,7.17
2023-04-09T20:42:47.540Z,8.40
2023-04-09T20:45:16.622Z,7.10
2023-04-09T20:47:45.102Z,6.80
2023-04-09T20:50:13.615Z,6.60
2023-04-09T20:52:42.090Z,8.20
2023-04-09T20:55:10.711Z,8.30
2023-04-09T20:57:39.149Z,7.63
2023-04-09T21:00:09.055Z,5.93
2023-04-09T21:02:37.814Z,6.30
2023-04-09T21:05:19.599Z,5.83
2023-04-09T21:07:53.134Z,10.20
2023-04-09T21:10:21.761Z,4.10
2023-04-09T21:12:50.375Z,4.73
2023-04-09T21:15:18.984Z,5.57
2023-04-09T21:17:47.600Z,3.77
2023-04-09T21:20:17.419Z,4.70
2023-04-09T21:22:45.923Z,3.07
2023-04-09T21:25:15.475Z,8.13
2023-04-09T21:27:44.174Z,5.53
2023-04-09T21:30:12.961Z,9.63
2023-04-09T21:32:41.431Z,6.20
2023-04-09T21:35:09.930Z,7.17
2023-04-09T21:37:39.173Z,9.07
2023-04-09T21:40:08.465Z,11.90
2023-04-09T21:42:36.879Z,11.40
2023-04-09T21:45:05.844Z,8.13
2023-04-09T21:47:34.356Z,7.10
2023-04-09T21:50:02.881Z,4.43
2023-04-09T21:52:31.486Z,5.90
2023-04-09T21:54:59.984Z,3.50
2023-04-09T21:57:28.430Z,3.30
2023-04-09T21:59:57.009Z,4.13
2023-04-09T22:02:25.569Z,6.70
2023-04-09T22:04:54.163Z,11.37
2023-04-09T22:07:22.822Z,3.20
2023-04-09T22:09:51.245Z,4.93
2023-04-09T22:12:19.642Z,3.70
2023-04-09T22:14:48.109Z,7.72
2023-04-09T22:17:16.742Z,3.90
2023-04-09T22:19:45.339Z,6.60
2023-04-09T22:22:15.815Z,7.70
2023-04-09T22:24:44.661Z,4.33
2023-04-09T22:27:13.823Z,3.37
2023-04-09T22:29:42.326Z,6.10
2023-04-09T22:32:10.989Z,4.97
2023-04-09T22:34:39.342Z,4.73
2023-04-09T22:37:07.863Z,3.23
2023-04-09T22:39:36.306Z,6.20
2023-04-09T22:42:05.595Z,4.83
2023-04-09T22:44:34.154Z,3.97
2023-04-09T22:47:02.565Z,3.67
2023-04-09T22:49:30.948Z,3.90
2023-04-09T22:51:59.360Z,3.23
2023-04-09T22:54:27.790Z,3.60
2023-04-09T22:56:57.552Z,3.70
2023-04-09T22:59:33.783Z,3.20
2023-04-09T23:02:08.026Z,3.30
2023-04-09T23:04:36.604Z,2.43
2023-04-09T23:07:05.090Z,2.70
2023-04-09T23:09:33.478Z,2.35
2023-04-09T23:12:02.442Z,2.70
2023-04-09T23:14:30.845Z,2.60
2023-04-09T23:16:59.274Z,5.10
2023-04-09T23:19:27.926Z,6.37
2023-04-09T23:21:56.335Z,6.67
2023-04-09T23:24:25.027Z,4.07
2023-04-09T23:26:53.571Z,4.57
2023-04-09T23:29:22.098Z,4.20
2023-04-09T23:31:50.662Z,4.07
2023-04-09T23:34:19.158Z,4.37
2023-04-09T23:36:47.575Z,4.00
2023-04-09T23:39:16.072Z,3.50
2023-04-09T23:41:44.582Z,2.80
2023-04-09T23:44:12.976Z,4.20
2023-04-09T23:46:42.424Z,4.43
2023-04-09T23:49:10.888Z,4.53
2023-04-09T23:51:39.295Z,3.20
2023-04-09T23:54:07.911Z,4.00
2023-04-09T23:56:37.052Z,4.00
2023-04-09T23:59:05.464Z,3.90
